sensor_id;sensor_type;location;lat;lon;timestamp;P1;durP1;ratioP1;P2;durP2;ratioP2
52668;SDS011;59898;52.786;6.892;2023-03-14T00:03:10;14.48;;;5.82;;
52668;SDS011;59898;52.786;6.892;2023-03-14T00:06:31;18.23;;;5.93;;
52668;SDS011;59898;52.786;6.892;2023-03-14T00:09:52;19.67;;;5.85;;
52668;SDS011;59898;52.786;6.892;2023-03-14T00:13:12;28.90;;;5.63;;
52668;SDS011;59898;52.786;6.892;2023-03-14T00:16:33;17.98;;;5.03;;
52668;SDS011;59898;52.786;6.892;2023-03-14T00:19:54;10.68;;;5.15;;
52668;SDS011;59898;52.786;6.892;2023-03-14T00:23:14;15.20;;;5.07;;
52668;SDS011;59898;52.786;6.892;2023-03-14T00:26:35;11.80;;;6.13;;
52668;SDS011;59898;52.786;6.892;2023-03-14T00:29:56;19.98;;;7.18;;
52668;SDS011;59898;52.786;6.892;2023-03-14T00:33:16;16.23;;;6.55;;
52668;SDS011;59898;52.786;6.892;2023-03-14T00:36:37;16.75;;;6.25;;
52668;SDS011;59898;52.786;6.892;2023-03-14T00:39:58;18.70;;;5.43;;
52668;SDS011;59898;52.786;6.892;2023-03-14T00:43:19;12.80;;;5.10;;
52668;SDS011;59898;52.786;6.892;2023-03-14T00:46:43;13.00;;;4.38;;
52668;SDS011;59898;52.786;6.892;2023-03-14T00:50:04;8.77;;;5.97;;
52668;SDS011;59898;52.786;6.892;2023-03-14T00:53:25;11.43;;;5.25;;
52668;SDS011;59898;52.786;6.892;2023-03-14T00:56:46;10.30;;;5.45;;
52668;SDS011;59898;52.786;6.892;2023-03-14T01:00:07;10.98;;;5.60;;
52668;SDS011;59898;52.786;6.892;2023-03-14T01:03:31;16.65;;;6.93;;
52668;SDS011;59898;52.786;6.892;2023-03-14T01:06:52;12.88;;;6.20;;
52668;SDS011;59898;52.786;6.892;2023-03-14T01:10:12;18.38;;;6.60;;
52668;SDS011;59898;52.786;6.892;2023-03-14T01:13:33;8.15;;;4.50;;
52668;SDS011;59898;52.786;6.892;2023-03-14T01:16:54;7.78;;;3.50;;
52668;SDS011;59898;52.786;6.892;2023-03-14T01:20:20;10.98;;;3.80;;
52668;SDS011;59898;52.786;6.892;2023-03-14T01:23:41;9.65;;;3.70;;
52668;SDS011;59898;52.786;6.892;2023-03-14T01:27:03;12.98;;;4.18;;
52668;SDS011;59898;52.786;6.892;2023-03-14T01:30:23;15.27;;;5.22;;
52668;SDS011;59898;52.786;6.892;2023-03-14T01:33:44;9.88;;;5.13;;
52668;SDS011;59898;52.786;6.892;2023-03-14T01:37:06;11.95;;;5.57;;
52668;SDS011;59898;52.786;6.892;2023-03-14T01:40:27;13.95;;;6.80;;
52668;SDS011;59898;52.786;6.892;2023-03-14T01:43:48;14.88;;;6.53;;
52668;SDS011;59898;52.786;6.892;2023-03-14T01:47:09;14.00;;;6.13;;
52668;SDS011;59898;52.786;6.892;2023-03-14T01:50:30;21.55;;;6.63;;
52668;SDS011;59898;52.786;6.892;2023-03-14T01:53:51;12.32;;;4.78;;
52668;SDS011;59898;52.786;6.892;2023-03-14T01:57:16;15.35;;;5.85;;
52668;SDS011;59898;52.786;6.892;2023-03-14T02:00:40;14.15;;;5.75;;
52668;SDS011;59898;52.786;6.892;2023-03-14T02:04:02;28.58;;;6.70;;
52668;SDS011;59898;52.786;6.892;2023-03-14T02:10:55;15.15;;;6.13;;
52668;SDS011;59898;52.786;6.892;2023-03-14T02:14:21;11.68;;;5.22;;
52668;SDS011;59898;52.786;6.892;2023-03-14T02:28:46;19.13;;;6.53;;
52668;SDS011;59898;52.786;6.892;2023-03-14T02:32:08;16.38;;;5.53;;
52668;SDS011;59898;52.786;6.892;2023-03-14T02:35:36;13.30;;;4.50;;
52668;SDS011;59898;52.786;6.892;2023-03-14T02:39:15;11.23;;;4.50;;
52668;SDS011;59898;52.786;6.892;2023-03-14T02:42:47;12.60;;;4.47;;
52668;SDS011;59898;52.786;6.892;2023-03-14T02:46:08;13.30;;;4.55;;
52668;SDS011;59898;52.786;6.892;2023-03-14T02:49:32;14.18;;;3.70;;
52668;SDS011;59898;52.786;6.892;2023-03-14T02:52:54;9.93;;;4.80;;
52668;SDS011;59898;52.786;6.892;2023-03-14T02:56:15;9.65;;;4.80;;
52668;SDS011;59898;52.786;6.892;2023-03-14T02:59:35;13.20;;;3.58;;
52668;SDS011;59898;52.786;6.892;2023-03-14T03:02:56;8.93;;;3.45;;
52668;SDS011;59898;52.786;6.892;2023-03-14T03:06:17;9.43;;;3.47;;
52668;SDS011;59898;52.786;6.892;2023-03-14T03:09:38;7.18;;;3.20;;
52668;SDS011;59898;52.786;6.892;2023-03-14T03:12:58;12.35;;;3.20;;
52668;SDS011;59898;52.786;6.892;2023-03-14T03:16:19;5.90;;;3.38;;
52668;SDS011;59898;52.786;6.892;2023-03-14T03:19:40;11.80;;;4.03;;
52668;SDS011;59898;52.786;6.892;2023-03-14T03:23:00;8.15;;;3.30;;
52668;SDS011;59898;52.786;6.892;2023-03-14T03:26:21;11.73;;;3.65;;
52668;SDS011;59898;52.786;6.892;2023-03-14T03:29:42;8.88;;;3.90;;
52668;SDS011;59898;52.786;6.892;2023-03-14T03:33:03;7.35;;;4.13;;
52668;SDS011;59898;52.786;6.892;2023-03-14T03:36:24;10.05;;;3.65;;
52668;SDS011;59898;52.786;6.892;2023-03-14T03:39:45;6.93;;;3.25;;
52668;SDS011;59898;52.786;6.892;2023-03-14T03:43:06;9.10;;;3.35;;
52668;SDS011;59898;52.786;6.892;2023-03-14T03:46:27;11.10;;;4.18;;
52668;SDS011;59898;52.786;6.892;2023-03-14T03:49:47;9.40;;;4.57;;
52668;SDS011;59898;52.786;6.892;2023-03-14T03:53:08;11.07;;;4.55;;
52668;SDS011;59898;52.786;6.892;2023-03-14T03:56:29;12.95;;;4.07;;
52668;SDS011;59898;52.786;6.892;2023-03-14T03:59:51;8.40;;;3.70;;
52668;SDS011;59898;52.786;6.892;2023-03-14T04:03:12;7.00;;;3.92;;
52668;SDS011;59898;52.786;6.892;2023-03-14T04:06:32;10.93;;;4.25;;
52668;SDS011;59898;52.786;6.892;2023-03-14T04:09:53;12.27;;;3.97;;
52668;SDS011;59898;52.786;6.892;2023-03-14T04:13:14;6.63;;;3.63;;
52668;SDS011;59898;52.786;6.892;2023-03-14T04:16:34;7.93;;;3.53;;
52668;SDS011;59898;52.786;6.892;2023-03-14T04:19:55;11.52;;;4.03;;
52668;SDS011;59898;52.786;6.892;2023-03-14T04:23:16;10.63;;;3.60;;
52668;SDS011;59898;52.786;6.892;2023-03-14T04:26:37;11.65;;;4.10;;
52668;SDS011;59898;52.786;6.892;2023-03-14T04:29:57;9.70;;;3.70;;
52668;SDS011;59898;52.786;6.892;2023-03-14T04:33:18;14.02;;;4.47;;
52668;SDS011;59898;52.786;6.892;2023-03-14T04:36:39;10.75;;;3.40;;
52668;SDS011;59898;52.786;6.892;2023-03-14T04:40:00;9.38;;;3.92;;
52668;SDS011;59898;52.786;6.892;2023-03-14T04:43:20;12.45;;;4.22;;
52668;SDS011;59898;52.786;6.892;2023-03-14T04:46:41;12.23;;;4.05;;
52668;SDS011;59898;52.786;6.892;2023-03-14T04:50:02;9.70;;;5.28;;
52668;SDS011;59898;52.786;6.892;2023-03-14T04:53:23;8.73;;;4.35;;
52668;SDS011;59898;52.786;6.892;2023-03-14T04:56:43;8.88;;;5.05;;
52668;SDS011;59898;52.786;6.892;2023-03-14T05:00:04;12.57;;;5.57;;
52668;SDS011;59898;52.786;6.892;2023-03-14T05:03:29;11.90;;;4.22;;
52668;SDS011;59898;52.786;6.892;2023-03-14T05:06:50;13.60;;;4.72;;
52668;SDS011;59898;52.786;6.892;2023-03-14T05:10:11;7.35;;;5.10;;
52668;SDS011;59898;52.786;6.892;2023-03-14T05:13:31;7.82;;;4.43;;
52668;SDS011;59898;52.786;6.892;2023-03-14T05:16:52;8.55;;;4.32;;
52668;SDS011;59898;52.786;6.892;2023-03-14T05:20:13;8.77;;;4.38;;
52668;SDS011;59898;52.786;6.892;2023-03-14T05:23:34;9.50;;;4.32;;
52668;SDS011;59898;52.786;6.892;2023-03-14T05:26:54;8.32;;;4.97;;
52668;SDS011;59898;52.786;6.892;2023-03-14T05:30:15;9.73;;;4.13;;
52668;SDS011;59898;52.786;6.892;2023-03-14T05:33:36;11.20;;;4.30;;
52668;SDS011;59898;52.786;6.892;2023-03-14T05:36:56;14.55;;;4.65;;
52668;SDS011;59898;52.786;6.892;2023-03-14T05:40:17;10.40;;;3.67;;
52668;SDS011;59898;52.786;6.892;2023-03-14T05:43:38;9.75;;;4.55;;
52668;SDS011;59898;52.786;6.892;2023-03-14T05:46:59;7.35;;;3.65;;
52668;SDS011;59898;52.786;6.892;2023-03-14T05:50:20;15.45;;;4.80;;
52668;SDS011;59898;52.786;6.892;2023-03-14T05:53:40;10.02;;;4.78;;
52668;SDS011;59898;52.786;6.892;2023-03-14T05:57:01;10.48;;;3.97;;
52668;SDS011;59898;52.786;6.892;2023-03-14T06:00:22;14.48;;;4.50;;
52668;SDS011;59898;52.786;6.892;2023-03-14T06:03:43;11.45;;;3.70;;
52668;SDS011;59898;52.786;6.892;2023-03-14T06:07:03;9.52;;;4.20;;
52668;SDS011;59898;52.786;6.892;2023-03-14T06:10:24;9.93;;;3.42;;
52668;SDS011;59898;52.786;6.892;2023-03-14T06:13:45;15.48;;;4.30;;
52668;SDS011;59898;52.786;6.892;2023-03-14T06:17:06;13.82;;;3.95;;
52668;SDS011;59898;52.786;6.892;2023-03-14T06:20:26;8.93;;;3.72;;
52668;SDS011;59898;52.786;6.892;2023-03-14T06:23:47;7.63;;;3.72;;
52668;SDS011;59898;52.786;6.892;2023-03-14T06:27:08;8.82;;;4.38;;
52668;SDS011;59898;52.786;6.892;2023-03-14T06:30:28;8.85;;;4.15;;
52668;SDS011;59898;52.786;6.892;2023-03-14T06:33:49;11.30;;;3.88;;
52668;SDS011;59898;52.786;6.892;2023-03-14T06:37:10;11.13;;;4.32;;
52668;SDS011;59898;52.786;6.892;2023-03-14T06:40:30;10.45;;;4.15;;
52668;SDS011;59898;52.786;6.892;2023-03-14T06:43:51;11.57;;;5.15;;
52668;SDS011;59898;52.786;6.892;2023-03-14T06:47:12;12.40;;;5.05;;
52668;SDS011;59898;52.786;6.892;2023-03-14T06:50:33;13.23;;;5.18;;
52668;SDS011;59898;52.786;6.892;2023-03-14T06:53:53;11.48;;;4.85;;
52668;SDS011;59898;52.786;6.892;2023-03-14T06:57:14;9.63;;;4.68;;
52668;SDS011;59898;52.786;6.892;2023-03-14T07:00:34;14.10;;;4.50;;
52668;SDS011;59898;52.786;6.892;2023-03-14T07:03:55;7.88;;;3.85;;
52668;SDS011;59898;52.786;6.892;2023-03-14T07:07:16;8.13;;;5.10;;
52668;SDS011;59898;52.786;6.892;2023-03-14T07:10:37;9.95;;;4.20;;
52668;SDS011;59898;52.786;6.892;2023-03-14T07:13:57;7.50;;;4.32;;
52668;SDS011;59898;52.786;6.892;2023-03-14T07:17:18;11.10;;;4.95;;
52668;SDS011;59898;52.786;6.892;2023-03-14T07:20:39;10.13;;;5.13;;
52668;SDS011;59898;52.786;6.892;2023-03-14T07:24:00;9.02;;;5.78;;
52668;SDS011;59898;52.786;6.892;2023-03-14T07:27:20;10.85;;;4.93;;
52668;SDS011;59898;52.786;6.892;2023-03-14T07:30:41;7.38;;;4.40;;
52668;SDS011;59898;52.786;6.892;2023-03-14T07:34:02;10.98;;;4.35;;
52668;SDS011;59898;52.786;6.892;2023-03-14T07:37:23;11.45;;;4.80;;
52668;SDS011;59898;52.786;6.892;2023-03-14T07:40:43;15.20;;;5.00;;
52668;SDS011;59898;52.786;6.892;2023-03-14T07:44:04;8.13;;;4.13;;
52668;SDS011;59898;52.786;6.892;2023-03-14T07:47:25;5.75;;;2.47;;
52668;SDS011;59898;52.786;6.892;2023-03-14T07:50:49;3.55;;;1.70;;
52668;SDS011;59898;52.786;6.892;2023-03-14T07:54:10;4.97;;;2.28;;
52668;SDS011;59898;52.786;6.892;2023-03-14T07:57:31;3.72;;;1.80;;
52668;SDS011;59898;52.786;6.892;2023-03-14T08:00:51;4.03;;;1.38;;
52668;SDS011;59898;52.786;6.892;2023-03-14T08:04:13;2.22;;;1.30;;
52668;SDS011;59898;52.786;6.892;2023-03-14T08:07:33;8.65;;;1.63;;
52668;SDS011;59898;52.786;6.892;2023-03-14T08:10:54;5.53;;;1.98;;
52668;SDS011;59898;52.786;6.892;2023-03-14T08:14:15;2.42;;;1.45;;
52668;SDS011;59898;52.786;6.892;2023-03-14T08:17:35;2.95;;;1.25;;
52668;SDS011;59898;52.786;6.892;2023-03-14T08:20:56;5.35;;;1.55;;
52668;SDS011;59898;52.786;6.892;2023-03-14T08:24:17;5.32;;;1.40;;
52668;SDS011;59898;52.786;6.892;2023-03-14T08:27:38;3.35;;;1.30;;
52668;SDS011;59898;52.786;6.892;2023-03-14T08:30:59;4.45;;;1.30;;
52668;SDS011;59898;52.786;6.892;2023-03-14T08:34:20;2.22;;;1.80;;
52668;SDS011;59898;52.786;6.892;2023-03-14T08:37:41;3.05;;;1.60;;
52668;SDS011;59898;52.786;6.892;2023-03-14T08:41:02;2.40;;;1.58;;
52668;SDS011;59898;52.786;6.892;2023-03-14T08:44:23;4.43;;;1.10;;
52668;SDS011;59898;52.786;6.892;2023-03-14T08:47:44;3.13;;;1.20;;
52668;SDS011;59898;52.786;6.892;2023-03-14T08:51:11;1.80;;;1.33;;
52668;SDS011;59898;52.786;6.892;2023-03-14T08:54:33;2.60;;;1.17;;
52668;SDS011;59898;52.786;6.892;2023-03-14T08:57:54;2.47;;;1.10;;
52668;SDS011;59898;52.786;6.892;2023-03-14T09:01:15;3.20;;;1.45;;
52668;SDS011;59898;52.786;6.892;2023-03-14T09:04:36;1.92;;;1.00;;
52668;SDS011;59898;52.786;6.892;2023-03-14T09:07:57;2.63;;;1.30;;
52668;SDS011;59898;52.786;6.892;2023-03-14T09:11:19;1.83;;;1.10;;
52668;SDS011;59898;52.786;6.892;2023-03-14T09:14:40;3.97;;;1.63;;
52668;SDS011;59898;52.786;6.892;2023-03-14T09:18:00;4.45;;;1.90;;
52668;SDS011;59898;52.786;6.892;2023-03-14T09:21:21;3.65;;;2.10;;
52668;SDS011;59898;52.786;6.892;2023-03-14T09:24:42;6.05;;;3.67;;
52668;SDS011;59898;52.786;6.892;2023-03-14T09:28:03;10.77;;;1.73;;
52668;SDS011;59898;52.786;6.892;2023-03-14T09:31:24;3.95;;;1.40;;
52668;SDS011;59898;52.786;6.892;2023-03-14T09:34:45;4.35;;;1.63;;
52668;SDS011;59898;52.786;6.892;2023-03-14T09:38:05;5.35;;;1.70;;
52668;SDS011;59898;52.786;6.892;2023-03-14T09:41:30;7.45;;;1.80;;
52668;SDS011;59898;52.786;6.892;2023-03-14T09:44:56;4.55;;;1.65;;
52668;SDS011;59898;52.786;6.892;2023-03-14T09:48:21;6.25;;;1.80;;
52668;SDS011;59898;52.786;6.892;2023-03-14T09:51:47;8.30;;;2.35;;
52668;SDS011;59898;52.786;6.892;2023-03-14T09:55:17;10.05;;;2.00;;
52668;SDS011;59898;52.786;6.892;2023-03-14T09:58:42;8.02;;;2.70;;
52668;SDS011;59898;52.786;6.892;2023-03-14T10:02:15;6.05;;;3.05;;
52668;SDS011;59898;52.786;6.892;2023-03-14T10:05:41;15.15;;;3.70;;
52668;SDS011;59898;52.786;6.892;2023-03-14T10:09:02;14.95;;;3.08;;
52668;SDS011;59898;52.786;6.892;2023-03-14T10:12:32;9.35;;;3.35;;
52668;SDS011;59898;52.786;6.892;2023-03-14T10:15:55;12.60;;;3.75;;
52668;SDS011;59898;52.786;6.892;2023-03-14T10:19:20;8.73;;;2.72;;
52668;SDS011;59898;52.786;6.892;2023-03-14T10:22:41;19.10;;;3.55;;
52668;SDS011;59898;52.786;6.892;2023-03-14T10:26:06;12.48;;;4.18;;
52668;SDS011;59898;52.786;6.892;2023-03-14T10:29:28;10.27;;;3.75;;
52668;SDS011;59898;52.786;6.892;2023-03-14T10:32:50;10.25;;;3.72;;
52668;SDS011;59898;52.786;6.892;2023-03-14T10:36:19;13.52;;;3.63;;
52668;SDS011;59898;52.786;6.892;2023-03-14T10:39:46;15.43;;;4.15;;
52668;SDS011;59898;52.786;6.892;2023-03-14T10:43:13;12.93;;;3.78;;
52668;SDS011;59898;52.786;6.892;2023-03-14T10:46:36;12.68;;;4.63;;
52668;SDS011;59898;52.786;6.892;2023-03-14T10:49:57;13.15;;;4.15;;
52668;SDS011;59898;52.786;6.892;2023-03-14T10:53:56;11.57;;;3.58;;
52668;SDS011;59898;52.786;6.892;2023-03-14T10:57:22;17.63;;;4.07;;
52668;SDS011;59898;52.786;6.892;2023-03-14T11:00:44;17.08;;;3.33;;
52668;SDS011;59898;52.786;6.892;2023-03-14T11:08:06;17.85;;;5.30;;
52668;SDS011;59898;52.786;6.892;2023-03-14T11:11:31;18.75;;;4.88;;
52668;SDS011;59898;52.786;6.892;2023-03-14T11:15:03;17.60;;;4.38;;
52668;SDS011;59898;52.786;6.892;2023-03-14T11:19:03;14.75;;;5.10;;
52668;SDS011;59898;52.786;6.892;2023-03-14T11:22:45;22.45;;;5.45;;
52668;SDS011;59898;52.786;6.892;2023-03-14T11:36:59;16.88;;;4.28;;
52668;SDS011;59898;52.786;6.892;2023-03-14T11:40:32;13.35;;;3.38;;
52668;SDS011;59898;52.786;6.892;2023-03-14T11:43:55;12.35;;;3.10;;
52668;SDS011;59898;52.786;6.892;2023-03-14T11:50:52;12.40;;;3.50;;
52668;SDS011;59898;52.786;6.892;2023-03-14T11:54:22;7.45;;;3.17;;
52668;SDS011;59898;52.786;6.892;2023-03-14T11:57:46;8.77;;;3.65;;
52668;SDS011;59898;52.786;6.892;2023-03-14T12:01:10;24.15;;;3.50;;
52668;SDS011;59898;52.786;6.892;2023-03-14T12:15:04;11.23;;;3.15;;
52668;SDS011;59898;52.786;6.892;2023-03-14T12:18:38;9.30;;;2.63;;
52668;SDS011;59898;52.786;6.892;2023-03-14T12:25:27;10.00;;;2.72;;
52668;SDS011;59898;52.786;6.892;2023-03-14T12:32:21;8.07;;;2.60;;
52668;SDS011;59898;52.786;6.892;2023-03-14T12:35:47;7.30;;;2.40;;
52668;SDS011;59898;52.786;6.892;2023-03-14T12:39:19;6.00;;;2.25;;
52668;SDS011;59898;52.786;6.892;2023-03-14T12:43:00;4.65;;;2.17;;
52668;SDS011;59898;52.786;6.892;2023-03-14T12:46:25;8.15;;;2.67;;
52668;SDS011;59898;52.786;6.892;2023-03-14T12:49:48;4.32;;;2.15;;
52668;SDS011;59898;52.786;6.892;2023-03-14T12:53:16;6.72;;;1.88;;
52668;SDS011;59898;52.786;6.892;2023-03-14T12:57:15;9.48;;;2.53;;
52668;SDS011;59898;52.786;6.892;2023-03-14T13:00:59;4.85;;;2.08;;
52668;SDS011;59898;52.786;6.892;2023-03-14T13:04:29;7.18;;;2.13;;
52668;SDS011;59898;52.786;6.892;2023-03-14T13:11:20;9.07;;;2.53;;
52668;SDS011;59898;52.786;6.892;2023-03-14T13:14:43;6.30;;;2.13;;
52668;SDS011;59898;52.786;6.892;2023-03-14T13:18:10;7.03;;;2.38;;
52668;SDS011;59898;52.786;6.892;2023-03-14T13:21:43;11.70;;;5.68;;
52668;SDS011;59898;52.786;6.892;2023-03-14T13:25:06;5.07;;;2.22;;
52668;SDS011;59898;52.786;6.892;2023-03-14T13:28:30;5.90;;;2.20;;
52668;SDS011;59898;52.786;6.892;2023-03-14T13:31:53;5.03;;;2.10;;
52668;SDS011;59898;52.786;6.892;2023-03-14T13:38:44;5.05;;;2.10;;
52668;SDS011;59898;52.786;6.892;2023-03-14T13:42:15;5.10;;;2.17;;
52668;SDS011;59898;52.786;6.892;2023-03-14T13:45:44;6.85;;;2.42;;
52668;SDS011;59898;52.786;6.892;2023-03-14T13:49:09;5.35;;;2.00;;
52668;SDS011;59898;52.786;6.892;2023-03-14T13:52:36;4.18;;;1.95;;
52668;SDS011;59898;52.786;6.892;2023-03-14T13:56:00;7.30;;;1.83;;
52668;SDS011;59898;52.786;6.892;2023-03-14T13:59:23;4.45;;;1.90;;
52668;SDS011;59898;52.786;6.892;2023-03-14T14:02:44;4.85;;;2.15;;
52668;SDS011;59898;52.786;6.892;2023-03-14T14:06:08;5.53;;;2.33;;
52668;SDS011;59898;52.786;6.892;2023-03-14T14:09:43;3.92;;;2.22;;
52668;SDS011;59898;52.786;6.892;2023-03-14T14:13:10;7.40;;;2.63;;
52668;SDS011;59898;52.786;6.892;2023-03-14T14:16:35;6.45;;;1.90;;
52668;SDS011;59898;52.786;6.892;2023-03-14T14:19:56;10.45;;;2.35;;
52668;SDS011;59898;52.786;6.892;2023-03-14T14:23:24;5.32;;;1.70;;
52668;SDS011;59898;52.786;6.892;2023-03-14T14:26:59;6.43;;;2.17;;
52668;SDS011;59898;52.786;6.892;2023-03-14T14:30:24;5.03;;;1.90;;
52668;SDS011;59898;52.786;6.892;2023-03-14T14:33:55;8.30;;;2.03;;
52668;SDS011;59898;52.786;6.892;2023-03-14T14:37:24;8.10;;;2.00;;
52668;SDS011;59898;52.786;6.892;2023-03-14T14:40:51;5.45;;;1.80;;
52668;SDS011;59898;52.786;6.892;2023-03-14T14:44:16;7.72;;;2.30;;
52668;SDS011;59898;52.786;6.892;2023-03-14T14:51:25;10.93;;;2.83;;
52668;SDS011;59898;52.786;6.892;2023-03-14T14:54:52;7.70;;;2.20;;
52668;SDS011;59898;52.786;6.892;2023-03-14T14:58:18;5.10;;;1.95;;
52668;SDS011;59898;52.786;6.892;2023-03-14T15:01:44;5.75;;;2.13;;
52668;SDS011;59898;52.786;6.892;2023-03-14T15:05:11;5.22;;;2.20;;
52668;SDS011;59898;52.786;6.892;2023-03-14T15:08:44;4.75;;;2.53;;
52668;SDS011;59898;52.786;6.892;2023-03-14T15:12:06;7.40;;;2.85;;
52668;SDS011;59898;52.786;6.892;2023-03-14T15:15:27;5.55;;;1.90;;
52668;SDS011;59898;52.786;6.892;2023-03-14T15:18:57;5.00;;;2.40;;
52668;SDS011;59898;52.786;6.892;2023-03-14T15:22:19;6.47;;;2.58;;
52668;SDS011;59898;52.786;6.892;2023-03-14T15:25:40;8.45;;;2.30;;
52668;SDS011;59898;52.786;6.892;2023-03-14T15:29:02;8.63;;;2.30;;
52668;SDS011;59898;52.786;6.892;2023-03-14T15:32:23;10.05;;;2.63;;
52668;SDS011;59898;52.786;6.892;2023-03-14T15:35:43;6.88;;;2.20;;
52668;SDS011;59898;52.786;6.892;2023-03-14T15:39:05;8.07;;;2.35;;
52668;SDS011;59898;52.786;6.892;2023-03-14T15:42:26;7.57;;;2.67;;
52668;SDS011;59898;52.786;6.892;2023-03-14T15:45:47;8.48;;;3.03;;
52668;SDS011;59898;52.786;6.892;2023-03-14T15:49:08;4.25;;;2.42;;
52668;SDS011;59898;52.786;6.892;2023-03-14T15:52:29;7.07;;;2.03;;
52668;SDS011;59898;52.786;6.892;2023-03-14T15:55:50;3.35;;;2.00;;
52668;SDS011;59898;52.786;6.892;2023-03-14T15:59:11;3.50;;;1.60;;
52668;SDS011;59898;52.786;6.892;2023-03-14T16:02:31;5.25;;;2.10;;
52668;SDS011;59898;52.786;6.892;2023-03-14T16:05:52;8.95;;;2.38;;
52668;SDS011;59898;52.786;6.892;2023-03-14T16:09:13;2.17;;;1.40;;
52668;SDS011;59898;52.786;6.892;2023-03-14T16:12:34;8.52;;;2.47;;
52668;SDS011;59898;52.786;6.892;2023-03-14T16:16:02;9.60;;;2.10;;
52668;SDS011;59898;52.786;6.892;2023-03-14T16:19:24;8.77;;;2.63;;
52668;SDS011;59898;52.786;6.892;2023-03-14T16:22:50;7.28;;;2.40;;
52668;SDS011;59898;52.786;6.892;2023-03-14T16:26:12;9.32;;;2.92;;
52668;SDS011;59898;52.786;6.892;2023-03-14T16:29:34;12.15;;;3.00;;
52668;SDS011;59898;52.786;6.892;2023-03-14T16:32:56;15.10;;;2.88;;
52668;SDS011;59898;52.786;6.892;2023-03-14T16:36:20;7.72;;;2.83;;
52668;SDS011;59898;52.786;6.892;2023-03-14T16:39:41;9.77;;;2.28;;
52668;SDS011;59898;52.786;6.892;2023-03-14T16:43:02;13.15;;;3.10;;
52668;SDS011;59898;52.786;6.892;2023-03-14T16:46:23;7.85;;;2.60;;
52668;SDS011;59898;52.786;6.892;2023-03-14T16:49:47;9.55;;;2.78;;
52668;SDS011;59898;52.786;6.892;2023-03-14T16:53:08;4.75;;;2.08;;
52668;SDS011;59898;52.786;6.892;2023-03-14T16:56:29;5.75;;;2.47;;
52668;SDS011;59898;52.786;6.892;2023-03-14T16:59:49;5.15;;;2.00;;
52668;SDS011;59898;52.786;6.892;2023-03-14T17:03:10;10.75;;;2.95;;
52668;SDS011;59898;52.786;6.892;2023-03-14T17:06:31;3.08;;;2.03;;
52668;SDS011;59898;52.786;6.892;2023-03-14T17:09:52;9.27;;;2.00;;
52668;SDS011;59898;52.786;6.892;2023-03-14T17:13:13;3.72;;;2.20;;
52668;SDS011;59898;52.786;6.892;2023-03-14T17:16:34;4.80;;;2.83;;
52668;SDS011;59898;52.786;6.892;2023-03-14T17:19:55;6.68;;;2.08;;
52668;SDS011;59898;52.786;6.892;2023-03-14T17:23:16;3.45;;;2.03;;
52668;SDS011;59898;52.786;6.892;2023-03-14T17:26:36;5.05;;;2.03;;
52668;SDS011;59898;52.786;6.892;2023-03-14T17:29:57;10.23;;;2.00;;
52668;SDS011;59898;52.786;6.892;2023-03-14T17:33:18;6.15;;;2.30;;
52668;SDS011;59898;52.786;6.892;2023-03-14T17:36:38;7.20;;;2.83;;
52668;SDS011;59898;52.786;6.892;2023-03-14T17:39:59;12.32;;;6.50;;
52668;SDS011;59898;52.786;6.892;2023-03-14T17:43:22;10.30;;;2.97;;
52668;SDS011;59898;52.786;6.892;2023-03-14T17:46:43;7.60;;;2.95;;
52668;SDS011;59898;52.786;6.892;2023-03-14T17:50:04;8.25;;;2.30;;
52668;SDS011;59898;52.786;6.892;2023-03-14T17:53:25;10.75;;;4.00;;
52668;SDS011;59898;52.786;6.892;2023-03-14T17:56:46;5.70;;;2.60;;
52668;SDS011;59898;52.786;6.892;2023-03-14T18:00:08;11.65;;;3.00;;
52668;SDS011;59898;52.786;6.892;2023-03-14T18:03:30;12.68;;;3.20;;
52668;SDS011;59898;52.786;6.892;2023-03-14T18:06:51;7.15;;;2.67;;
52668;SDS011;59898;52.786;6.892;2023-03-14T18:10:12;6.05;;;2.88;;
52668;SDS011;59898;52.786;6.892;2023-03-14T18:13:33;8.23;;;4.40;;
52668;SDS011;59898;52.786;6.892;2023-03-14T18:16:54;12.05;;;4.40;;
52668;SDS011;59898;52.786;6.892;2023-03-14T18:20:14;6.15;;;2.55;;
52668;SDS011;59898;52.786;6.892;2023-03-14T18:23:35;5.80;;;3.05;;
52668;SDS011;59898;52.786;6.892;2023-03-14T18:26:57;11.15;;;4.13;;
52668;SDS011;59898;52.786;6.892;2023-03-14T18:30:17;6.18;;;2.78;;
52668;SDS011;59898;52.786;6.892;2023-03-14T18:33:39;8.55;;;2.85;;
52668;SDS011;59898;52.786;6.892;2023-03-14T18:37:01;12.90;;;4.55;;
52668;SDS011;59898;52.786;6.892;2023-03-14T18:40:22;7.75;;;3.00;;
52668;SDS011;59898;52.786;6.892;2023-03-14T18:43:43;13.13;;;2.90;;
52668;SDS011;59898;52.786;6.892;2023-03-14T18:47:03;9.25;;;3.55;;
52668;SDS011;59898;52.786;6.892;2023-03-14T18:50:24;4.85;;;2.50;;
52668;SDS011;59898;52.786;6.892;2023-03-14T18:53:45;6.30;;;2.42;;
52668;SDS011;59898;52.786;6.892;2023-03-14T18:57:05;7.82;;;3.25;;
52668;SDS011;59898;52.786;6.892;2023-03-14T19:00:26;10.52;;;2.70;;
52668;SDS011;59898;52.786;6.892;2023-03-14T19:03:47;6.80;;;2.50;;
52668;SDS011;59898;52.786;6.892;2023-03-14T19:07:08;10.48;;;2.85;;
52668;SDS011;59898;52.786;6.892;2023-03-14T19:10:28;5.63;;;2.40;;
52668;SDS011;59898;52.786;6.892;2023-03-14T19:13:52;8.93;;;3.50;;
52668;SDS011;59898;52.786;6.892;2023-03-14T19:17:14;17.92;;;9.13;;
52668;SDS011;59898;52.786;6.892;2023-03-14T19:20:34;9.07;;;5.25;;
52668;SDS011;59898;52.786;6.892;2023-03-14T19:23:59;6.88;;;2.53;;
52668;SDS011;59898;52.786;6.892;2023-03-14T19:27:21;4.75;;;2.40;;
52668;SDS011;59898;52.786;6.892;2023-03-14T19:30:41;9.57;;;2.28;;
52668;SDS011;59898;52.786;6.892;2023-03-14T19:34:02;6.82;;;2.40;;
52668;SDS011;59898;52.786;6.892;2023-03-14T19:37:23;5.50;;;2.63;;
52668;SDS011;59898;52.786;6.892;2023-03-14T19:40:45;6.55;;;2.28;;
52668;SDS011;59898;52.786;6.892;2023-03-14T19:44:05;8.77;;;3.28;;
52668;SDS011;59898;52.786;6.892;2023-03-14T19:47:27;7.15;;;2.63;;
52668;SDS011;59898;52.786;6.892;2023-03-14T19:50:48;5.20;;;1.90;;
52668;SDS011;59898;52.786;6.892;2023-03-14T19:54:09;6.78;;;2.95;;
52668;SDS011;59898;52.786;6.892;2023-03-14T19:57:30;6.82;;;2.20;;
52668;SDS011;59898;52.786;6.892;2023-03-14T20:00:51;7.53;;;2.80;;
52668;SDS011;59898;52.786;6.892;2023-03-14T20:04:11;10.13;;;4.30;;
52668;SDS011;59898;52.786;6.892;2023-03-14T20:07:33;13.98;;;2.97;;
52668;SDS011;59898;52.786;6.892;2023-03-14T20:10:54;17.45;;;3.22;;
52668;SDS011;59898;52.786;6.892;2023-03-14T20:14:15;10.20;;;2.47;;
52668;SDS011;59898;52.786;6.892;2023-03-14T20:17:36;15.32;;;2.97;;
52668;SDS011;59898;52.786;6.892;2023-03-14T20:20:57;10.13;;;2.38;;
52668;SDS011;59898;52.786;6.892;2023-03-14T20:24:18;10.25;;;2.85;;
52668;SDS011;59898;52.786;6.892;2023-03-14T20:27:39;6.20;;;2.92;;
52668;SDS011;59898;52.786;6.892;2023-03-14T20:31:00;7.55;;;3.28;;
52668;SDS011;59898;52.786;6.892;2023-03-14T20:34:25;9.27;;;2.80;;
52668;SDS011;59898;52.786;6.892;2023-03-14T20:37:46;8.57;;;3.22;;
52668;SDS011;59898;52.786;6.892;2023-03-14T20:41:06;11.95;;;3.05;;
52668;SDS011;59898;52.786;6.892;2023-03-14T20:44:29;9.32;;;2.78;;
52668;SDS011;59898;52.786;6.892;2023-03-14T20:47:50;11.52;;;3.60;;
52668;SDS011;59898;52.786;6.892;2023-03-14T20:51:11;8.85;;;3.40;;
52668;SDS011;59898;52.786;6.892;2023-03-14T20:54:33;15.02;;;2.83;;
52668;SDS011;59898;52.786;6.892;2023-03-14T20:57:53;9.13;;;3.70;;
52668;SDS011;59898;52.786;6.892;2023-03-14T21:01:14;8.02;;;2.90;;
52668;SDS011;59898;52.786;6.892;2023-03-14T21:04:35;9.48;;;3.03;;
52668;SDS011;59898;52.786;6.892;2023-03-14T21:07:56;10.70;;;3.40;;
52668;SDS011;59898;52.786;6.892;2023-03-14T21:11:16;10.43;;;3.53;;
52668;SDS011;59898;52.786;6.892;2023-03-14T21:14:37;8.63;;;3.13;;
52668;SDS011;59898;52.786;6.892;2023-03-14T21:17:58;21.20;;;8.23;;